ADDS METAR Data INFO
IDs: Format: Raw Decoded Include TAF

Data at: 2114 UTC 22 Oct 2017

KOWI 222055Z AUTO 32006KT 10SM CLR 19/02 A3010 RMK AO2
KOWI 222035Z AUTO 33006KT 9SM CLR 19/03 A3010 RMK AO2
KOWI 222015Z AUTO 34007G13KT 9SM CLR 19/02 A3011 RMK AO2
KOWI 221955Z AUTO 31008G13KT 10SM CLR 19/03 A3011 RMK AO2
KOWI 221935Z AUTO 35009KT 9SM CLR 19/04 A3011 RMK AO2
KOWI 221915Z AUTO 34011G16KT 10SM CLR 19/03 A3011 RMK AO2
KOWI 221855Z AUTO 33011KT 9SM CLR 18/04 A3011 RMK AO2
KOWI 221835Z AUTO 31011KT 10SM CLR 18/06 A3012 RMK AO2
KOWI 221815Z AUTO 32010G16KT 10SM CLR 18/06 A3013 RMK AO2
KOWI 221755Z AUTO 31011KT 10SM CLR 17/07 A3014 RMK AO2
KOWI 221735Z AUTO 33009G14KT 10SM CLR 16/07 A3015 RMK AO2
KOWI 221715Z AUTO 32011KT 10SM CLR 16/07 A3015 RMK AO2
KOWI 221655Z AUTO 32012KT 10SM CLR 16/07 A3015 RMK AO2
KOWI 221635Z AUTO 32009KT 10SM CLR 16/07 A3015 RMK AO2
KOWI 221615Z AUTO 31010KT 10SM CLR 15/07 A3014 RMK AO2
KOWI 221555Z AUTO 32009KT 10SM CLR 14/08 A3014 RMK AO2
KOWI 221535Z AUTO 9.41666709KT 10SM CLR 14/09 A3014 RMK AO2
KOWI 221515Z AUTO 30009KT 10SM CLR 13/08 A3013 RMK AO2
KOWI 221455Z AUTO 31008KT 10SM CLR 12/08 A3013 RMK AO2
KOWI 221435Z AUTO 31009KT 10SM CLR 11/08 A3013 RMK AO2
KOWI 221415Z AUTO 32007KT 10SM CLR 10/08 A3012 RMK AO2
KOWI 221355Z AUTO 31007KT 10SM CLR 09/07 A3011 RMK AO2
KOWI 221335Z AUTO 31008KT 10SM CLR 09/07 A3011 RMK AO2
KOWI 221315Z AUTO 31008KT 10SM CLR 09/08 A3011 RMK AO2
KOWI 221255Z AUTO 30006KT 10SM CLR 09/08 A3010 RMK AO2
KOWI 221235Z AUTO 32006KT 10SM CLR 09/08 A3008 RMK AO2
KOWI 221215Z AUTO 31005KT 10SM CLR 09/08 A3009 RMK AO2
KOWI 221155Z AUTO 30007KT 10SM CLR 09/09 A3009 RMK AO2
KOWI 221135Z AUTO 30005KT 10SM CLR 09/09 A3008 RMK AO2
KOWI 221115Z AUTO 32005KT 10SM CLR 10/09 A3007 RMK AO2
KOWI 221055Z AUTO 32006KT 10SM CLR 10/09 A3007 RMK AO2
KOWI 221035Z AUTO 29005KT 10SM CLR 10/09 A3007 RMK AO2
KOWI 221015Z AUTO 29005KT 10SM CLR 10/09 A3007 RMK AO2
KOWI 220955Z AUTO 28003KT 10SM SCT080 10/09 A3006 RMK AO2
KOWI 220935Z AUTO 31004KT 10SM SCT080 10/10 A3004 RMK AO2
KOWI 220915Z AUTO 33004KT 10SM FEW075 10/10 A3000 RMK AO2
KOWI 220855Z AUTO 32007KT 10SM FEW110 10/10 A2998 RMK AO2 P0001
KOWI 220835Z AUTO 01007KT 10SM BKN110 11/10 A2997 RMK AO2 LTG DSNT NE-SE
KOWI 220815Z AUTO 04008KT 10SM VCTS FEW011 SCT075 BKN095 11/10 A2999 RMK AO2 LTG DSNT E-S
KOWI 220755Z AUTO 33008G13KT 6SM RA FEW003 SCT017 BKN032 11/10 A3001 RMK AO2 LTG DSNT NE-SE P0007
KOWI 220735Z AUTO 31009KT 7SM VCTS FEW034 BKN070 OVC085 11/10 A3002 RMK AO2 LTG DSNT ALQDS
KOWI 220715Z AUTO 05015KT 6SM VCTS RA SCT029 BKN043 OVC085 11/10 A2992 RMK AO2 LTG DSNT ALQDS
KOWI 220655Z AUTO 01010KT 5SM VCTS RA SCT027 SCT050 OVC075 11/10 A2997 RMK AO2 LTG DSNT ALQDS P0012
KOWI 220635Z AUTO 34011KT 5SM -TSRA FEW028 SCT050 OVC075 11/10 A2999 RMK AO2 LTG DSNT ALQDS
KOWI 220615Z AUTO 35011G17KT 6SM -TSRA FEW026 SCT055 OVC080 11/10 A2999 RMK AO2 LTG DSNT ALQDS
KOWI 220555Z AUTO 36011G17KT 5SM VCTS RA BKN026 BKN032 OVC080 11/10 A2996 RMK AO2 LTG DSNT ALQDS P0022
KOWI 220535Z AUTO 35011G18KT 4SM VCTS RA BKN027 OVC037 11/10 A2998 RMK AO2 LTG DSNT ALQDS
KOWI 220515Z AUTO 33012KT 3SM VCTS RA SCT024 BKN029 OVC085 12/11 A2998 RMK AO2 LTG DSNT ALQDS
KOWI 220455Z AUTO 35010KT 3SM VCTS RA BKN027 BKN070 OVC090 12/11 A2996 RMK AO2 LTG DSNT ALQDS P0027
KOWI 220435Z AUTO 35013G21KT 4SM VCTS RA BKN026 BKN030 OVC075 12/11 A2997 RMK AO2 LTG DSNT ALQDS
KOWI 220415Z AUTO 33011G20KT 6SM VCTS RA FEW013 SCT027 OVC075 12/11 A2999 RMK AO2 LTG DSNT ALQDS
KOWI 220355Z AUTO 32010G16KT 4SM VCTS RA FEW008 BKN012 OVC022 13/12 A2997 RMK AO2 LTG DSNT ALQDS P0018
KOWI 220335Z AUTO 32012KT 5SM VCTS RA SCT009 BKN014 OVC034 14/13 A2994 RMK AO2
KOWI 220315Z AUTO 36007G15KT 5SM -TSRA FEW013 SCT033 BKN042 14/13 A2994 RMK AO2 LTG DSNT ALQDS
KOWI 220255Z AUTO 33013KT 5SM VCTS RA FEW033 SCT046 BKN085 14/13 A2993 RMK AO2 P0005
KOWI 220235Z AUTO 33014KT 7SM VCTS FEW030 BKN043 OVC075 14/13 A2990 RMK AO2 LTG DSNT ALQDS
KOWI 220215Z AUTO 35015G20KT 4SM VCTS RA FEW004 SCT025 BKN038 15/14 A2987 RMK AO2 LTG DSNT ALQDS
KOWI 220155Z AUTO 33013G20KT 3SM TSRA SCT003 BKN025 OVC039 15/14 A2990 RMK AO2 P0075
KOWI 220135Z AUTO 33010G19KT VCTS RA 15/15 A2990 RMK AO2 LTG DSNT ALQDS
KOWI 220115Z AUTO 35011KT 3SM TSRA SCT003 OVC006 15/15 A2985 RMK AO2
KOWI 220055Z AUTO 34013G24KT 1SM +TSRA BKN003 BKN013 OVC029 15/15 A2985 RMK AO2 P0030
KOWI 220035Z AUTO 28012G17KT 10SM TS FEW009 FEW014 OVC028 17/16 A2986 RMK AO2 LTG DSNT ALQDS
KOWI 220015Z AUTO 32009KT 10SM VCTS OVC026 18/16 A2981 RMK AO2 LTG DSNT SW-N
KOWI 212355Z AUTO VRB04G20KT 10SM VCTS FEW021 BKN027 OVC035 19/16 A2981 RMK AO2 LTG DSNT SW-N
KOWI 212335Z AUTO 16010KT 9SM BKN035 BKN050 OVC055 23/19 A2979 RMK AO2 LTG DSNT SW-N
KOWI 212315Z AUTO 17011KT 10SM VCTS BKN034 BKN048 OVC055 23/19 A2979 RMK AO2 LTG DSNT SW-N
KOWI 212255Z AUTO 17010G16KT 10SM VCTS FEW034 BKN060 OVC080 24/19 A2978 RMK AO2 LTG DSNT SW-N
KOWI 212235Z AUTO 17012KT 10SM VCTS FEW034 BKN055 OVC075 24/19 A2978 RMK AO2 LTG DSNT SW-N
KOWI 212215Z AUTO 18011G18KT 10SM VCTS FEW035 BKN055 OVC070 24/19 A2979 RMK AO2 LTG DSNT SW-N
KOWI 212155Z AUTO 18015G20KT 9SM FEW036 BKN055 OVC070 24/19 A2979 RMK AO2 LTG DSNT W-N
KOWI 212135Z AUTO 18015KT 9SM FEW046 BKN055 OVC065 24/18 A2979 RMK AO2 LTG DSNT N AND NW
KOWI 212115Z AUTO 19016G25KT 9SM OVC060 24/19 A2979 RMK AO2 LTG DSNT NW
KOWI 212055Z AUTO 18015G24KT 9SM FEW031 OVC060 24/19 A2979 RMK AO2 LTG DSNT W-N
KOWI 212035Z AUTO 19020G27KT 8SM FEW032 OVC060 25/19 A2978 RMK AO2 LTG DSNT NW
KOWI 212015Z AUTO 19019G26KT 9SM SCT033 BKN060 25/19 A2979 RMK AO2
KOWI 211955Z AUTO 19022G32KT 9SM BKN031 BKN037 OVC060 25/19 A2979 RMK AO2
KOWI 211935Z AUTO 19023G30KT 8SM BKN030 BKN055 24/18 A2980 RMK AO2
KOWI 211915Z AUTO 19021G30KT 9SM FEW029 FEW060 26/19 A2980 RMK AO2
KOWI 211855Z AUTO 19020G33KT 9SM FEW028 25/19 A2979 RMK AO2
KOWI 211835Z AUTO 18026G33KT 9SM CLR 24/19 A2979 RMK AO2
KOWI 211815Z AUTO 18023G29KT 9SM FEW024 FEW050 24/19 A2980 RMK AO2
KOWI 211755Z AUTO 18021G33KT 9SM SCT025 SCT036 BKN050 23/19 A2981 RMK AO2
KOWI 211735Z AUTO 18024G33KT 9SM BKN026 BKN036 OVC048 23/18 A2982 RMK AO2
KOWI 211715Z AUTO 19023G32KT 8SM OVC025 23/18 A2982 RMK AO2
KOWI 211655Z AUTO 18022G30KT 9SM BKN021 OVC025 23/18 A2982 RMK AO2
KOWI 211635Z AUTO 18021G31KT 9SM OVC020 22/18 A2982 RMK AO2
KOWI 211615Z AUTO 17018G30KT 8SM OVC019 22/18 A2983 RMK AO2
KOWI 211555Z AUTO 17021G26KT 9SM OVC018 21/18 A2983 RMK AO2
KOWI 211535Z AUTO 18019G28KT 9SM OVC017 21/17 A2983 RMK AO2
KOWI 211515Z AUTO 17025G37KT 8SM OVC016 20/17 A2983 RMK AO2
KOWI 211455Z AUTO 18020G29KT 9SM OVC016 20/17 A2983 RMK AO2
KOWI 211435Z AUTO 17019G27KT 8SM OVC016 20/17 A2983 RMK AO2
KOWI 211415Z AUTO 17021G31KT 10SM OVC016 19/17 A2982 RMK AO2
KOWI 211355Z AUTO 18021G26KT 10SM OVC016 19/16 A2983 RMK AO2
KOWI 211335Z AUTO 17019G26KT 10SM OVC017 19/16 A2982 RMK AO2
KOWI 211315Z AUTO 17021G30KT 10SM OVC018 19/16 A2982 RMK AO2
KOWI 211255Z AUTO 17019G26KT 10SM OVC018 19/16 A2981 RMK AO2
KOWI 211235Z AUTO 17018G31KT 10SM OVC020 19/16 A2981 RMK AO2
KOWI 211215Z AUTO 17017G24KT 10SM OVC020 19/16 A2982 RMK AO2
KOWI 211155Z AUTO 18022G32KT 10SM OVC021 19/16 A2982 RMK AO2
KOWI 211135Z AUTO 17023KT 10SM BKN021 OVC030 19/16 A2982 RMK AO2
KOWI 211115Z AUTO 18023G34KT 10SM OVC021 19/16 A2982 RMK AO2
KOWI 211055Z AUTO 18022G30KT 10SM OVC022 19/15 A2982 RMK AO2
KOWI 211035Z AUTO 18018G24KT 10SM OVC023 19/15 A2982 RMK AO2
KOWI 211015Z AUTO 18017KT 10SM OVC023 19/15 A2982 RMK AO2
KOWI 210955Z AUTO 18016G22KT 10SM OVC024 19/15 A2982 RMK AO2
KOWI 210935Z AUTO 17019G25KT 10SM OVC025 18/15 A2982 RMK AO2
KOWI 210915Z AUTO 17019G25KT 10SM OVC026 18/15 A2981 RMK AO2